Yachats, OR (97498)

7:46 PM PST on February 12, 2016 (GMT -0800)
Stormwatcher's Retreat | | Change Station
CLOSE
Current Station
Personal Weather Station
Location: Yachats, OR
Elevation: 26 ft
Nearby Weather Stations

Elev 26 ft 44.31 °N, 124.11 °W | Updated 2 minutes ago

Clear
Clear
52.6 °F
Feels Like 52.6 °F
N
7.0
Wind Variable Wind from SSW
Gusts 8.0 mph

Today
High -- | Low -- °F
--% Chance of Precip.
Yesterday
High -- | Low -- °F
Precip. -- in
Pressure 30.30 in
Visibility 5.0 miles
Clouds Clear
Dew Point 51 °F
Humidity 95%
Rainfall 0.18 in
Snow Depth Not available.
7:20 AM 5:40 PM
Waxing Crescent, 26% visible
METAR KONP 130335Z AUTO 21008KT 5SM BR CLR 10/10 A3030 RMK AO2
Pressure 30.30 in
Visibility 5.0 miles
Clouds Clear
Dew Point 51 °F
Humidity 95%
Rainfall 0.18 in
Snow Depth Not available.
7:20 AM 5:40 PM
Waxing Crescent, 26% visible
METAR KONP 130335Z AUTO 21008KT 5SM BR CLR 10/10 A3030 RMK AO2

10-Day Weather Forecast

Almanac

Astronomy

Feb. 12, 2016 Rise Set
Actual Time
Civil Twilight
Nautical Twilight
Astronomical Twilight
Moon
Length of Visible Light
Length of Day
Tomorrow will be .
, % of the Moon is Illuminated

Today's Extremes

State Highs State Lows

Community

WunderPhotos

Upload Photos

1,892,492 photos uploaded!

WunderBlog® & News

Nearby

Air Quality

  Air Quality AQ Index Pollutant
Not available.

Snow Depth

Station Depth Elevation

Earthquake Activity

City Distance Mag. Time & Date
Minimum magnitude displayed is 2.5.

Coastal Water Temperatures

Place Temperature

Stations

Nearby Weather Stations

Station Location Temp. Windchill Dew Point Humidity Wind Precip. Elev Updated Type
                   

Watches & Warnings

There are currently no watches in effect.